ADDS METAR Data INFO
IDs: Format: Raw Decoded Include TAF

Data at: 0507 UTC 23 May 2017

KF46 230455Z AUTO 15006KT 10SM CLR 17/17 A2994 RMK AO2 LTG DSNT N T01710165
KF46 230435Z AUTO 14005KT 10SM CLR 17/17 A2994 RMK AO2 LTG DSNT N T01730165
KF46 230415Z AUTO 13003KT 10SM CLR 18/17 A2993 RMK AO2 T01760166
KF46 230355Z AUTO 13003KT 10SM CLR 18/17 A2994 RMK AO2 LTG DSNT NW T01780166
KF46 230335Z AUTO 11005KT 10SM CLR 18/17 A2994 RMK AO2 T01800166
KF46 230315Z AUTO 12003KT 10SM CLR 18/17 A2994 RMK AO2 LTG DSNT NW T01810168
KF46 230255Z AUTO 12003KT 10SM CLR 19/17 A2994 RMK AO2 T01850166
KF46 230235Z AUTO 11004KT 10SM CLR 19/16 A2994 RMK AO2 T01860164
KF46 230215Z AUTO 11005KT 10SM CLR 19/16 A2993 RMK AO2 T01910163
KF46 230155Z AUTO 11007KT 10SM CLR 20/16 A2993 RMK AO2 T01950162
KF46 230135Z AUTO 11006KT 10SM CLR 20/16 A2993 RMK AO2 T01990163
KF46 230115Z AUTO 11006KT 10SM SCT024 21/16 A2992 RMK AO2 T02050163
KF46 230055Z AUTO 10005KT 10SM SCT024 21/17 A2992 RMK AO2 LTG DSNT NW T02100165
KF46 230035Z AUTO 10005KT 10SM CLR 22/16 A2992 RMK AO2 T02150162
KF46 230015Z AUTO 12006KT 100V160 10SM CLR 22/16 A2992 RMK AO2 LTG DSNT NW T02230162
KF46 222355Z AUTO 10011KT 10SM SCT032 SCT040 BKN046 23/17 A2992 RMK AO2 T02340165 10248 20230
KF46 222335Z AUTO 14006KT 10SM BKN034 BKN040 BKN046 23/16 A2993 RMK AO2 T02340163
KF46 222315Z AUTO 15004G14KT 10SM BKN035 BKN046 24/16 A2993 RMK AO2 T02350159
KF46 222255Z AUTO 13003KT 10SM SCT035 SCT046 24/16 A2993 RMK AO2 LTG DSNT NW T02350155
KF46 222235Z AUTO 17004KT 10SM BKN044 24/16 A2994 RMK AO2 T02430157
KF46 222215Z AUTO 17004KT 10SM SCT037 24/16 A2996 RMK AO2 LTG DSNT NW T02400156
KF46 222155Z AUTO 09004G14KT 10SM SCT035 23/16 A2996 RMK AO2 T02300156
KF46 222135Z AUTO 10005KT 10SM SCT037 SCT060 24/15 A2996 RMK AO2 T02400154
KF46 222115Z AUTO 09009G18KT 070V140 10SM SCT037 BKN060 25/16 A2997 RMK AO2 T02450158
KF46 222055Z AUTO 09007KT 10SM SCT035 25/16 A2997 RMK AO2 T02450158
KF46 222035Z AUTO 08008G14KT 050V120 10SM BKN035 24/16 A2998 RMK AO2 T02410157
KF46 222015Z AUTO 09008G15KT 050V110 10SM BKN035 24/16 A2998 RMK AO2 T02410156
KF46 221955Z AUTO 15006G15KT 060V170 10SM SCT032 24/16 A2999 RMK AO2 T02400157
KF46 221935Z AUTO 08010G14KT 10SM SCT070 SCT085 24/16 A3000 RMK AO2 T02390158
KF46 221915Z AUTO 07006KT 10SM OVC070 23/15 A3001 RMK AO2 T02330152
KF46 221855Z AUTO 08008KT 10SM OVC070 24/15 A3003 RMK AO2 T02350152
KF46 221835Z AUTO 11006KT 10SM SCT043 SCT050 OVC070 23/15 A3003 RMK AO2 T02340147
KF46 221815Z AUTO 11005KT 10SM SCT050 BKN070 23/15 A3005 RMK AO2 T02310148
KF46 221755Z AUTO 10006KT 10SM SCT040 23/15 A3005 RMK AO2 T02330154 10233 20165
KF46 221735Z AUTO 12005KT 10SM CLR 23/15 A3006 RMK AO2 T02320152
KF46 221715Z AUTO 09006KT 030V130 10SM CLR 23/15 A3006 RMK AO2 T02290150
KF46 221655Z AUTO 08008KT 10SM CLR 22/15 A3006 RMK AO2 T02220147
KF46 221635Z AUTO 09009G15KT 10SM CLR 22/15 A3007 RMK AO2 T02220153
KF46 221615Z AUTO 07009KT 10SM SCT034 21/15 A3008 RMK AO2 T02120151
KF46 221555Z AUTO 08006KT 10SM SCT034 21/15 A3008 RMK AO2 T02060150
KF46 221535Z AUTO 08010KT 10SM SCT034 20/15 A3009 RMK AO2 T02030146
KF46 221515Z AUTO 08012KT 10SM SCT034 BKN042 20/14 A3009 RMK AO2 T02000142
KF46 221455Z AUTO 08007KT 10SM SCT017 SCT034 BKN042 20/15 A3010 RMK AO2 T01970152
KF46 221435Z AUTO 08007KT 10SM CLR 20/15 A3010 RMK AO2 T01950152
KF46 221415Z AUTO 08006KT 10SM CLR 19/16 A3010 RMK AO2 T01910160
KF46 221355Z AUTO 07006KT 10SM CLR 19/16 A3008 RMK AO2 T01900162
KF46 221335Z AUTO 08007KT 10SM SCT026 18/16 A3008 RMK AO2 T01830163
KF46 221315Z AUTO 07007KT 10SM BKN026 OVC041 18/16 A3008 RMK AO2 T01780162
KF46 221255Z AUTO 04004KT 10SM BKN041 17/17 A3009 RMK AO2 T01730167
KF46 221235Z AUTO 08003KT 10SM BKN017 BKN023 BKN041 17/17 A3009 RMK AO2 T01700165
KF46 221215Z AUTO 00000KT 10SM OVC017 17/17 A3010 RMK AO2 T01680165
KF46 221155Z AUTO 13003KT 10SM SCT019 17/16 A3010 RMK AO2 60024 70035 T01650160 10195 20165
KF46 221135Z AUTO 08004KT 10SM CLR 17/16 A3009 RMK AO2 T01650160
KF46 221115Z AUTO 00000KT 10SM -DZ SCT017 SCT065 SCT120 17/16 A3009 RMK AO2 LTG DSNT NW T01680164
KF46 221055Z AUTO 10SM -RA BKN120 17/17 A3009 RMK AO2 P0002 T01700169
KF46 221035Z AUTO 11003KT 10SM RA BKN120 17/17 A3010 RMK AO2 P0002 T01660166
KF46 221015Z AUTO 11003KT 10SM -RA SCT070 BKN110 17/17 A3010 RMK AO2 P0001 T01660166
KF46 220955Z AUTO 00000KT 10SM -RA SCT060 SCT095 OVC120 17/17 A3010 RMK AO2 P0005 T01700170
KF46 220935Z AUTO 00000KT 7SM -RA SCT060 SCT070 OVC110 17/17 A3010 RMK AO2 LTG DSNT S P0004 T01710167
KF46 220915Z AUTO 00000KT 10SM -RA OVC120 17/17 A3010 RMK AO2 P0002 T01700165
KF46 220855Z AUTO 12006KT 10SM -RA OVC120 17/17 A3010 RMK AO2 P0005 60017 T01720167
KF46 220835Z AUTO 10004KT 10SM -RA OVC120 18/18 A3012 RMK AO2 P0003 T01770175
KF46 220815Z AUTO 00000KT 10SM -RA OVC120 18/18 A3012 RMK AO2 P0001 T01770175
KF46 220755Z AUTO 14003KT 10SM -RA OVC120 18/18 A3012 RMK AO2 P0006 T01790176
KF46 220735Z AUTO 22003KT 10SM -RA OVC110 18/18 A3012 RMK AO2 P0004 T01800180
KF46 220715Z AUTO 00000KT 10SM -RA OVC110 18/18 A3011 RMK AO2 P0003 T01800178
KF46 220655Z AUTO 00000KT 7SM RA BKN100 OVC120 18/18 A3011 RMK AO2 P0006 T01830180
KF46 220635Z AUTO 00000KT 7SM RA OVC120 19/18 A3011 RMK AO2 P0002 T01850178
KF46 220615Z AUTO 11003KT 10SM -RA OVC110 19/17 A3013 RMK AO2 P0001 T01850172
KF46 220555Z AUTO 19007KT 10SM -RA SCT075 BKN085 OVC110 20/17 A3015 RMK AO2 P0001 60001 T01950166 10240 20190 402580154
KF46 220535Z AUTO 16005KT 10SM VCTSDZ BKN075 OVC090 19/16 A3015 RMK AO2 LTG DSNT E P0001 T01900162
KF46 220515Z AUTO 18007KT 10SM RA BKN075 OVC100 19/15 A3015 RMK AO2 LTG DSNT SE T01920153
KF46 220455Z AUTO 12005KT 10SM -RA SCT075 OVC100 20/14 A3014 RMK AO2 LTG DSNT SE T01970144
KF46 220435Z AUTO 16003KT 10SM -DZ OVC065 21/14 A3014 RMK AO2 LTG DSNT SE T02050144
KF46 220415Z AUTO 20010KT 10SM BKN065 OVC120 21/14 A3013 RMK AO2 LTG DSNT S T02060137
KF46 220355Z AUTO 03005KT 10SM BKN120 21/14 A3011 RMK AO2 T02070137
KF46 220335Z AUTO 00000KT 10SM SCT120 21/15 A3011 RMK AO2 LTG DSNT S T02050146
KF46 220315Z AUTO 02003KT 10SM CLR 21/14 A3010 RMK AO2 LTG DSNT S AND SW T02060140
KF46 220255Z AUTO 03005KT 10SM CLR 21/14 A3009 RMK AO2 T02100137
KF46 220235Z AUTO 04004KT 10SM SCT120 21/14 A3009 RMK AO2 LTG DSNT SW T02110144
KF46 220215Z AUTO 00000KT 10SM OVC120 21/15 A3010 RMK AO2 T02140150
KF46 220155Z AUTO 00000KT 10SM OVC110 21/15 A3009 RMK AO2 T02130150
KF46 220135Z AUTO 00000KT 10SM SCT110 22/15 A3008 RMK AO2 T02150153
KF46 220115Z AUTO 05003KT 10SM SCT110 22/15 A3008 RMK AO2 T02220145
KF46 220055Z AUTO 03003KT 10SM SCT110 23/14 A3008 RMK AO2 T02280143
KF46 220035Z AUTO 06004KT 10SM CLR 23/14 A3009 RMK AO2 T02320142
KF46 220015Z AUTO 10004KT 10SM SCT100 24/14 A3009 RMK AO2 LTG DSNT SE T02360140
KF46 212355Z AUTO 09005KT 10SM SCT100 24/14 A3009 RMK AO2 T02400138 10258 20225
KF46 212335Z AUTO 06005KT 10SM CLR 25/13 A3009 RMK AO2 T02450132
KF46 212315Z AUTO 03005KT 10SM SCT100 25/12 A3009 RMK AO2 T02460122
KF46 212255Z AUTO 04007KT 10SM SCT100 25/12 A3009 RMK AO2 T02500121
KF46 212235Z AUTO 03010G15KT 10SM CLR 25/12 A3010 RMK AO2 LTG DSNT SE T02510118
KF46 212215Z AUTO 05009KT 10SM SCT120 26/13 A3009 RMK AO2 T02580129
KF46 212155Z AUTO 03010G19KT 10SM SCT110 25/12 A3009 RMK AO2 T02510123
KF46 212135Z AUTO 05012G18KT 10SM SCT120 26/12 A3009 RMK AO2 LTG DSNT SE T02550122
KF46 212115Z AUTO 04010G18KT 10SM SCT120 26/11 A3010 RMK AO2 LTG DSNT SE T02550114
KF46 212055Z AUTO 02009G15KT 10SM CLR 25/11 A3011 RMK AO2 T02540112
KF46 212035Z AUTO 04010G16KT 340V070 10SM CLR 25/12 A3012 RMK AO2 T02540116
KF46 212015Z AUTO 02009G15KT 10SM CLR 25/11 A3013 RMK AO2 T02510114
KF46 211955Z AUTO 04010KT 10SM CLR 25/12 A3012 RMK AO2 LTG DSNT SE T02510118
KF46 211935Z AUTO 06009G15KT 10SM SCT110 24/11 A3012 RMK AO2 T02420113
KF46 211915Z AUTO 06009KT 10SM CLR 24/12 A3013 RMK AO2 T02440122
KF46 211855Z AUTO 05007G15KT 10SM SCT110 24/11 A3014 RMK AO2 T02400111
KF46 211835Z AUTO 07008KT 10SM BKN120 24/11 A3015 RMK AO2 LTG DSNT SE T02360114
KF46 211815Z AUTO 07007KT 10SM BKN120 23/11 A3016 RMK AO2 LTG DSNT SE T02340114
KF46 211755Z AUTO 07008KT 10SM SCT120 23/10 A3016 RMK AO2 LTG DSNT SE 60010 T02250104 10232 20154
KF46 211735Z AUTO 05011G14KT 10SM SCT120 22/09 A3017 RMK AO2 LTG DSNT SE T02200093
KF46 211715Z AUTO 06009KT 050V120 10SM SCT120 23/11 A3017 RMK AO2 LTG DSNT SE AND S T02270106


Page loaded:  05:07 UTC  |   10:07 PM Pacific  |   11:07 PM Mountain  |   12:07 AM Central  |   01:07 AM Eastern

 

ADVISORIES

FORECASTS

FORECASTS

OBSERVATIONS

USER TOOLS

ABOUT US